createdAt,value
2022-10-17T00:01:45.111Z,98880.81
2022-10-17T00:04:27.325Z,98884.91
2022-10-17T00:07:16.072Z,98879.72
2022-10-17T00:09:58.489Z,98885.19
2022-10-17T00:12:48.060Z,98885.78
2022-10-17T00:15:37.056Z,98892.91
2022-10-17T00:18:19.361Z,98896.00
2022-10-17T00:21:08.032Z,98897.41
2022-10-17T00:23:50.571Z,98898.50
2022-10-17T00:26:46.166Z,98895.19
2022-10-17T00:29:34.339Z,98900.97
2022-10-17T00:32:17.127Z,98900.22
2022-10-17T00:35:06.582Z,98907.84
2022-10-17T00:37:49.064Z,98912.28
2022-10-17T00:40:37.323Z,98909.69
2022-10-17T00:43:26.056Z,98913.03
2022-10-17T00:46:15.349Z,98920.06
2022-10-17T00:49:01.057Z,98919.53
2022-10-17T00:52:04.369Z,98924.88
2022-10-17T00:54:52.059Z,98923.03
2022-10-17T00:57:41.352Z,98924.28
2022-10-17T01:00:25.048Z,98923.91
2022-10-17T01:03:15.497Z,98932.66
2022-10-17T01:05:58.064Z,98932.66
2022-10-17T01:08:47.099Z,98929.97
2022-10-17T01:12:13.075Z,98937.00
2022-10-17T01:15:25.319Z,98935.31
2022-10-17T01:18:22.049Z,98935.84
2022-10-17T01:21:13.344Z,98936.28
2022-10-17T01:24:34.062Z,98935.47
2022-10-17T01:27:41.333Z,98940.72
2022-10-17T01:31:01.054Z,98952.72
2022-10-17T01:34:02.108Z,98953.31
2022-10-17T01:37:26.313Z,98952.72
2022-10-17T01:40:23.046Z,98956.97
2022-10-17T01:43:47.055Z,98956.22
2022-10-17T01:46:45.463Z,98963.81
2022-10-17T01:49:33.063Z,98961.28
2022-10-17T01:52:24.968Z,98968.13
2022-10-17T01:55:24.045Z,98974.03
2022-10-17T01:58:11.803Z,98968.72
2022-10-17T02:01:03.097Z,98977.28
2022-10-17T02:03:54.050Z,98980.19
2022-10-17T02:06:36.353Z,98979.50
2022-10-17T02:09:34.118Z,98989.28
2022-10-17T02:12:34.370Z,98991.59
2022-10-17T02:15:47.056Z,98995.56
2022-10-17T02:18:49.486Z,99000.22
2022-10-17T02:21:41.061Z,99000.66
2022-10-17T02:24:47.347Z,99006.53
2022-10-17T02:28:02.048Z,99011.25
2022-10-17T02:31:02.050Z,99008.22
2022-10-17T02:34:02.052Z,99013.50
2022-10-17T02:36:57.058Z,99012.59
2022-10-17T02:39:41.334Z,99014.91
2022-10-17T02:42:33.400Z,99017.31
2022-10-17T02:45:17.480Z,99020.91
2022-10-17T02:48:17.055Z,99019.38
2022-10-17T02:51:24.035Z,99018.56
2022-10-17T02:54:18.048Z,99022.63
2022-10-17T02:57:10.323Z,99028.53
2022-10-17T03:00:00.111Z,99025.19
2022-10-17T03:02:55.351Z,99032.09
2022-10-17T03:05:44.028Z,99029.38
2022-10-17T03:08:27.380Z,99035.00
2022-10-17T03:11:10.122Z,99036.63
2022-10-17T03:13:59.330Z,99038.66
2022-10-17T03:16:42.113Z,99031.78
2022-10-17T03:19:32.326Z,99042.78
2022-10-17T03:22:15.051Z,99040.81
2022-10-17T03:25:04.031Z,99049.44
2022-10-17T03:27:46.514Z,99041.16
2022-10-17T03:30:35.051Z,99043.84
2022-10-17T03:33:24.028Z,99048.66
2022-10-17T03:36:24.319Z,99055.50
2022-10-17T03:39:07.025Z,99053.59
2022-10-17T03:41:50.885Z,99056.22
2022-10-17T03:44:40.034Z,99053.78
2022-10-17T03:47:29.590Z,99045.59
2022-10-17T03:50:13.557Z,99056.19
2022-10-17T03:53:03.016Z,99057.50
2022-10-17T03:55:52.043Z,99056.00
2022-10-17T03:58:34.291Z,99051.94
2022-10-17T04:01:25.158Z,99059.25
2022-10-17T04:04:08.219Z,99054.56
2022-10-17T04:07:00.052Z,99057.41
2022-10-17T04:09:45.994Z,99063.84
2022-10-17T04:12:37.057Z,99066.38
2022-10-17T04:15:20.253Z,99058.50
2022-10-17T04:18:09.101Z,99057.50
2022-10-17T04:20:57.810Z,99062.06
2022-10-17T04:23:41.034Z,99062.09
2022-10-17T04:26:38.253Z,99060.22
2022-10-17T04:29:28.090Z,99059.88
2022-10-17T04:32:19.416Z,99061.59
2022-10-17T04:35:16.038Z,99065.28
2022-10-17T04:38:15.021Z,99059.75
2022-10-17T04:41:05.097Z,99051.44
2022-10-17T04:43:54.324Z,99051.56
2022-10-17T04:46:38.047Z,99055.22
2022-10-17T04:49:27.041Z,99045.66
2022-10-17T04:52:17.482Z,99047.44
2022-10-17T04:55:07.044Z,99045.66
2022-10-17T04:57:49.321Z,99039.00
2022-10-17T05:00:39.171Z,99038.22
2022-10-17T05:03:28.312Z,99032.88
2022-10-17T05:06:30.068Z,99044.94
2022-10-17T05:09:32.450Z,99034.91
2022-10-17T05:12:21.034Z,99033.41
2022-10-17T05:15:03.462Z,99032.50
2022-10-17T05:17:52.050Z,99027.78
2022-10-17T05:20:37.528Z,99024.31
2022-10-17T05:23:26.033Z,99030.72
2022-10-17T05:26:08.326Z,99023.44
2022-10-17T05:28:57.094Z,99017.50
2022-10-17T05:31:41.491Z,99017.94
2022-10-17T05:34:30.028Z,99006.50
2022-10-17T05:37:12.470Z,98996.38
2022-10-17T05:40:05.032Z,98993.91
2022-10-17T05:42:54.519Z,98984.94
2022-10-17T05:45:45.041Z,98990.13
2022-10-17T05:48:30.447Z,98986.69
2022-10-17T05:51:20.614Z,98984.56
2022-10-17T05:54:04.480Z,98982.84
2022-10-17T05:56:53.045Z,98985.63
2022-10-17T05:59:39.400Z,98979.78
2022-10-17T06:02:32.384Z,98979.84
2022-10-17T06:05:16.749Z,98977.69
2022-10-17T06:08:06.019Z,98980.97
2022-10-17T06:10:55.047Z,98977.31
2022-10-17T06:13:43.298Z,98975.88
2022-10-17T06:16:32.032Z,98970.31
2022-10-17T06:19:15.277Z,98961.34
2022-10-17T06:22:04.030Z,98965.75
2022-10-17T06:24:54.188Z,98961.88
2022-10-17T06:27:49.076Z,98962.75
2022-10-17T06:30:31.239Z,98962.50
2022-10-17T06:33:20.113Z,98957.16
2022-10-17T06:36:02.723Z,98952.66
2022-10-17T06:38:52.028Z,98949.56
2022-10-17T06:41:45.600Z,98950.13
2022-10-17T06:44:38.037Z,98946.13
2022-10-17T06:47:40.245Z,98936.31
2022-10-17T06:50:52.051Z,98930.06
2022-10-17T06:53:43.385Z,98932.22
2022-10-17T06:56:40.046Z,98925.09
2022-10-17T06:59:35.412Z,98920.56
2022-10-17T07:02:28.189Z,98917.53
2022-10-17T07:05:12.017Z,98918.38
2022-10-17T07:08:01.400Z,98910.44
2022-10-17T07:10:53.292Z,98907.34
2022-10-17T07:13:39.138Z,98903.06
2022-10-17T07:16:22.337Z,98893.88
2022-10-17T07:19:19.038Z,98888.78
2022-10-17T07:22:08.981Z,98887.13
2022-10-17T07:25:02.086Z,98879.88
2022-10-17T07:28:07.926Z,98868.88
2022-10-17T07:30:58.093Z,98867.78
2022-10-17T07:33:40.441Z,98868.72
2022-10-17T07:36:31.086Z,98856.44
2022-10-17T07:39:15.331Z,98852.91
2022-10-17T07:42:06.105Z,98853.06
2022-10-17T07:44:48.601Z,98843.75
2022-10-17T07:47:39.051Z,98832.41
2022-10-17T07:50:31.239Z,98835.19
2022-10-17T07:53:13.446Z,98830.06
2022-10-17T07:56:02.094Z,98818.84
2022-10-17T07:58:51.377Z,98816.81
2022-10-17T08:01:34.109Z,98813.97
2022-10-17T08:04:23.477Z,98802.66
2022-10-17T08:07:18.571Z,98804.25
2022-10-17T08:10:15.349Z,98803.44
2022-10-17T08:13:05.830Z,98803.31
2022-10-17T08:15:48.028Z,98794.94
2022-10-17T08:18:37.457Z,98797.81
2022-10-17T08:21:21.050Z,98786.97
2022-10-17T08:24:11.013Z,98786.84
2022-10-17T08:26:54.468Z,98778.91
2022-10-17T08:29:43.042Z,98780.00
2022-10-17T08:32:33.255Z,98783.59
2022-10-17T08:35:23.214Z,98774.06
2022-10-17T08:38:11.027Z,98766.75
2022-10-17T08:41:05.488Z,98760.50
2022-10-17T08:44:03.033Z,98761.13
2022-10-17T08:46:49.655Z,98749.47
2022-10-17T08:50:28.028Z,98744.84
2022-10-17T08:53:44.039Z,98738.66
2022-10-17T08:56:49.542Z,98742.66
2022-10-17T08:59:39.086Z,98739.81
2022-10-17T09:02:41.549Z,98735.13
2022-10-17T09:05:52.102Z,98726.41
2022-10-17T09:08:42.483Z,98724.19
2022-10-17T09:12:12.038Z,98719.41
2022-10-17T09:15:38.944Z,98714.03
2022-10-17T09:18:51.048Z,98705.88
2022-10-17T09:21:45.112Z,98703.94
2022-10-17T09:24:46.500Z,98692.88
2022-10-17T09:27:45.016Z,98691.94
2022-10-17T09:30:44.663Z,98697.94
2022-10-17T09:33:53.256Z,98688.84
2022-10-17T09:36:44.083Z,98689.38
2022-10-17T09:39:41.039Z,98688.72
2022-10-17T09:42:34.075Z,98686.00
2022-10-17T09:45:27.945Z,98682.53
2022-10-17T09:48:47.789Z,98679.56
2022-10-17T09:51:40.047Z,98664.22
2022-10-17T09:54:27.271Z,98664.84
2022-10-17T09:57:22.031Z,98664.72
2022-10-17T10:03:29.032Z,98664.28
2022-10-17T10:06:27.044Z,98662.41
2022-10-17T10:09:09.897Z,98661.34
2022-10-17T10:12:07.027Z,98654.34
2022-10-17T10:14:56.031Z,98646.44
2022-10-17T10:17:50.038Z,98644.19
2022-10-17T10:20:47.818Z,98641.56
2022-10-17T10:23:40.637Z,98648.88
2022-10-17T10:26:31.405Z,98637.91
2022-10-17T10:29:45.029Z,98637.91
2022-10-17T10:32:37.026Z,98638.28
2022-10-17T10:36:00.009Z,98641.84
2022-10-17T10:38:44.383Z,98632.34
2022-10-17T10:41:35.014Z,98631.75
2022-10-17T10:44:23.311Z,98630.41
2022-10-17T10:47:34.086Z,98627.09
2022-10-17T10:50:17.344Z,98628.16
2022-10-17T10:53:39.036Z,98624.94
2022-10-17T10:56:32.329Z,98633.94
2022-10-17T10:59:38.095Z,98632.81
2022-10-17T11:02:44.445Z,98626.78
2022-10-17T11:05:39.161Z,98623.00
2022-10-17T11:08:42.438Z,98623.00
2022-10-17T11:11:41.040Z,98632.44
2022-10-17T11:14:36.015Z,98635.09
2022-10-17T11:17:53.823Z,98631.25
2022-10-17T11:21:01.084Z,98643.03
2022-10-17T11:23:59.350Z,98636.97
2022-10-17T11:26:47.035Z,98633.47
2022-10-17T11:29:44.305Z,98638.56
2022-10-17T11:32:39.027Z,98630.03
2022-10-17T11:35:39.067Z,98626.88
2022-10-17T11:38:27.018Z,98625.22
2022-10-17T11:41:21.331Z,98624.56
2022-10-17T11:44:11.022Z,98626.34
2022-10-17T11:47:29.995Z,98626.03
2022-10-17T11:53:55.010Z,98617.66
2022-10-17T11:56:56.355Z,98624.09
2022-10-17T12:00:05.418Z,98623.41
2022-10-17T12:03:12.099Z,98625.38
2022-10-17T12:06:03.362Z,98616.50
2022-10-17T12:09:19.041Z,98619.84
2022-10-17T12:12:12.031Z,98613.63
2022-10-17T12:14:55.140Z,98618.59
2022-10-17T12:17:50.030Z,98615.81
2022-10-17T12:20:44.007Z,98616.03
2022-10-17T12:23:34.478Z,98618.13
2022-10-17T12:26:36.009Z,98616.22
2022-10-17T12:29:43.025Z,98619.91
2022-10-17T12:32:30.192Z,98622.63
2022-10-17T12:35:36.039Z,98613.84
2022-10-17T12:38:33.058Z,98616.69
2022-10-17T12:41:15.320Z,98618.44
2022-10-17T12:44:04.042Z,98616.53
2022-10-17T12:47:18.049Z,98621.50
2022-10-17T12:50:00.217Z,98618.00
2022-10-17T12:52:49.084Z,98618.75
2022-10-17T12:55:37.365Z,98612.63
2022-10-17T12:58:24.995Z,98617.44
2022-10-17T13:01:23.715Z,98616.50
2022-10-17T13:04:14.015Z,98622.13
2022-10-17T13:07:06.047Z,98615.34
2022-10-17T13:09:52.323Z,98624.44
2022-10-17T13:12:45.311Z,98629.84
2022-10-17T13:15:29.310Z,98628.41
2022-10-17T13:18:33.009Z,98632.97
2022-10-17T13:21:30.017Z,98628.84
2022-10-17T13:28:28.089Z,98644.81
2022-10-17T13:31:45.330Z,98642.06
2022-10-17T13:34:30.311Z,98640.16
2022-10-17T13:37:24.020Z,98642.91
2022-10-17T13:40:30.712Z,98655.91
2022-10-17T13:43:24.024Z,98653.16
2022-10-17T13:46:35.985Z,98652.19
2022-10-17T13:49:45.044Z,98661.94
2022-10-17T13:52:31.634Z,98661.94
2022-10-17T13:55:28.109Z,98666.81
2022-10-17T13:58:26.380Z,98666.28
2022-10-17T14:01:17.095Z,98668.56
2022-10-17T14:04:09.365Z,98670.56
2022-10-17T14:07:01.052Z,98675.91
2022-10-17T14:09:43.371Z,98665.06
2022-10-17T14:12:36.035Z,98666.16
2022-10-17T14:15:50.090Z,98673.63
2022-10-17T14:18:44.045Z,98672.16
2022-10-17T14:21:43.749Z,98680.91
2022-10-17T14:24:37.047Z,98675.41
2022-10-17T14:27:43.487Z,98671.03
2022-10-17T14:30:55.231Z,98676.19
2022-10-17T14:33:42.559Z,98678.16
2022-10-17T14:36:52.048Z,98677.03
2022-10-17T14:39:43.429Z,98689.03
2022-10-17T14:42:32.300Z,98684.34
2022-10-17T14:45:23.465Z,98686.63
2022-10-17T14:48:22.281Z,98684.03
2022-10-17T14:51:25.034Z,98683.34
2022-10-17T14:54:34.026Z,98697.13
2022-10-17T14:57:36.484Z,98699.25
2022-10-17T15:00:27.038Z,98694.19
2022-10-17T15:03:09.450Z,98691.59
2022-10-17T15:06:00.100Z,98690.78
2022-10-17T15:11:32.099Z,98697.13
2022-10-17T15:14:14.465Z,98696.31
2022-10-17T15:17:03.089Z,98701.66
2022-10-17T15:19:45.332Z,98697.09
2022-10-17T15:22:39.040Z,98706.34
2022-10-17T15:25:44.417Z,98706.16
2022-10-17T15:28:40.965Z,98702.28
2022-10-17T15:31:32.008Z,98705.34
2022-10-17T15:34:14.291Z,98710.34
2022-10-17T15:37:03.034Z,98710.50
2022-10-17T15:40:04.342Z,98716.09
2022-10-17T15:43:12.865Z,98710.47
2022-10-17T15:45:57.514Z,98712.25
2022-10-17T15:48:46.030Z,98718.22
2022-10-17T15:51:29.313Z,98714.00
2022-10-17T15:54:18.000Z,98723.38
2022-10-17T15:57:10.142Z,98718.00
2022-10-17T16:00:00.034Z,98722.41
2022-10-17T16:02:44.463Z,98713.78
2022-10-17T16:05:35.019Z,98718.97
2022-10-17T16:08:17.298Z,98711.66
2022-10-17T16:11:06.018Z,98712.13
2022-10-17T16:13:48.430Z,98716.66
2022-10-17T16:16:38.024Z,98710.31
2022-10-17T16:19:20.427Z,98714.53
2022-10-17T16:22:12.019Z,98716.47
2022-10-17T16:24:59.847Z,98713.91
2022-10-17T16:27:49.011Z,98715.63
2022-10-17T16:30:43.428Z,98718.53
2022-10-17T16:33:24.999Z,98713.66
2022-10-17T16:36:15.071Z,98718.97
2022-10-17T16:38:58.582Z,98722.56
2022-10-17T16:41:48.031Z,98725.81
2022-10-17T16:44:36.992Z,98714.16
2022-10-17T16:47:20.157Z,98715.25
2022-10-17T16:50:09.007Z,98724.53
2022-10-17T16:52:57.992Z,98722.81
2022-10-17T16:55:47.053Z,98723.66
2022-10-17T16:58:37.415Z,98723.50
2022-10-17T17:01:32.383Z,98727.31
2022-10-17T17:04:14.471Z,98727.38
2022-10-17T17:07:03.016Z,98729.94
2022-10-17T17:09:52.696Z,98727.69
2022-10-17T17:12:36.059Z,98720.22
2022-10-17T17:15:24.360Z,98722.13
2022-10-17T17:18:07.472Z,98714.84
2022-10-17T17:20:57.378Z,98728.56
2022-10-17T17:23:43.011Z,98728.19
2022-10-17T17:26:38.998Z,98723.88
2022-10-17T17:29:31.073Z,98721.81
2022-10-17T17:32:14.636Z,98722.09
2022-10-17T17:35:04.017Z,98719.75
2022-10-17T17:37:46.490Z,98708.59
2022-10-17T17:40:35.046Z,98715.59
2022-10-17T17:43:17.569Z,98712.34
2022-10-17T17:46:10.052Z,98709.91
2022-10-17T17:49:01.002Z,98708.91
2022-10-17T17:51:54.033Z,98710.53
2022-10-17T17:54:40.013Z,98706.59
2022-10-17T17:57:30.005Z,98702.03
2022-10-17T18:00:14.453Z,98700.41
2022-10-17T18:03:03.986Z,98702.25
2022-10-17T18:05:55.039Z,98707.44
2022-10-17T18:08:45.509Z,98704.69
2022-10-17T18:11:27.994Z,98703.31
2022-10-17T18:14:24.801Z,98700.56
2022-10-17T18:17:07.038Z,98709.47
2022-10-17T18:19:56.007Z,98700.25
2022-10-17T18:22:45.677Z,98698.94
2022-10-17T18:25:35.219Z,98684.56
2022-10-17T18:28:24.129Z,98685.00
2022-10-17T18:31:20.503Z,98681.28
2022-10-17T18:34:10.022Z,98683.19
2022-10-17T18:36:53.926Z,98677.69
2022-10-17T18:39:43.022Z,98676.50
2022-10-17T18:42:25.721Z,98680.56
2022-10-17T18:45:15.004Z,98668.41
2022-10-17T18:47:57.382Z,98681.50
2022-10-17T18:50:45.993Z,98681.81
2022-10-17T18:53:35.999Z,98671.94
2022-10-17T18:56:26.002Z,98674.59
2022-10-17T18:59:08.499Z,98674.00
2022-10-17T19:01:57.056Z,98670.06
2022-10-17T19:04:46.048Z,98671.69
2022-10-17T19:07:34.989Z,98665.56
2022-10-17T19:10:26.749Z,98661.13
2022-10-17T19:13:09.999Z,98659.31
2022-10-17T19:15:59.412Z,98661.94
2022-10-17T19:18:42.015Z,98660.00
2022-10-17T19:21:31.427Z,98643.97
2022-10-17T19:24:16.008Z,98658.81
2022-10-17T19:27:00.496Z,98654.94
2022-10-17T19:29:52.001Z,98648.53
2022-10-17T19:32:34.557Z,98648.03
2022-10-17T19:35:23.981Z,98645.81
2022-10-17T19:38:18.994Z,98642.31
2022-10-17T19:41:01.364Z,98644.19
2022-10-17T19:43:51.996Z,98648.03
2022-10-17T19:46:41.998Z,98648.53
2022-10-17T19:49:24.433Z,98648.16
2022-10-17T19:52:14.010Z,98657.41
2022-10-17T19:54:56.417Z,98651.38
2022-10-17T19:57:45.010Z,98643.88
2022-10-17T20:00:36.019Z,98646.63
2022-10-17T20:03:25.460Z,98634.13
2022-10-17T20:06:08.023Z,98641.53
2022-10-17T20:08:57.008Z,98638.00
2022-10-17T20:11:45.990Z,98636.38
2022-10-17T20:14:37.444Z,98628.63
2022-10-17T20:17:24.038Z,98628.44
2022-10-17T20:20:15.309Z,98623.25
2022-10-17T20:22:58.038Z,98624.19
2022-10-17T20:25:46.991Z,98616.88
2022-10-17T20:28:29.307Z,98622.88
2022-10-17T20:31:19.000Z,98617.50
2022-10-17T20:34:05.394Z,98616.56
2022-10-17T20:36:55.007Z,98615.47
2022-10-17T20:39:38.282Z,98621.75
2022-10-17T20:42:29.003Z,98621.53
2022-10-17T20:45:18.697Z,98624.06
2022-10-17T20:48:01.191Z,98616.47
2022-10-17T20:50:51.997Z,98621.84
2022-10-17T20:53:40.987Z,98621.97
2022-10-17T20:56:49.991Z,98613.84
2022-10-17T20:59:39.010Z,98618.03
2022-10-17T21:02:21.277Z,98613.84
2022-10-17T21:05:10.003Z,98617.69
2022-10-17T21:07:52.261Z,98615.34
2022-10-17T21:10:40.997Z,98615.47
2022-10-17T21:13:23.282Z,98618.63
2022-10-17T21:16:22.048Z,98616.19
2022-10-17T21:19:05.358Z,98618.00
2022-10-17T21:21:55.012Z,98622.59
2022-10-17T21:24:37.306Z,98612.78
2022-10-17T21:27:27.005Z,98613.50
2022-10-17T21:30:22.862Z,98608.72
2022-10-17T21:33:11.990Z,98609.53
2022-10-17T21:35:54.272Z,98602.81
2022-10-17T21:38:46.978Z,98604.06
2022-10-17T21:41:31.910Z,98606.50
2022-10-17T21:44:25.965Z,98616.59
2022-10-17T21:47:08.362Z,98610.16
2022-10-17T21:49:56.986Z,98611.75
2022-10-17T21:52:45.968Z,98613.56
2022-10-17T21:55:35.009Z,98610.94
2022-10-17T21:58:23.990Z,98619.69
2022-10-17T22:01:19.025Z,98612.78
2022-10-17T22:04:05.254Z,98618.44
2022-10-17T22:06:55.976Z,98617.53
2022-10-17T22:09:38.280Z,98618.53
2022-10-17T22:12:27.072Z,98614.72
2022-10-17T22:15:15.974Z,98611.47
2022-10-17T22:17:58.236Z,98617.03
2022-10-17T22:20:48.996Z,98612.25
2022-10-17T22:23:31.396Z,98611.53
2022-10-17T22:26:20.985Z,98612.25
2022-10-17T22:29:16.840Z,98613.78
2022-10-17T22:32:05.990Z,98617.66
2022-10-17T22:34:48.496Z,98613.13
2022-10-17T22:37:36.976Z,98614.63
2022-10-17T22:40:31.968Z,98619.03
2022-10-17T22:43:14.986Z,98616.19
2022-10-17T22:46:11.984Z,98616.41
2022-10-17T22:48:54.130Z,98617.38
2022-10-17T22:51:42.953Z,98614.06
2022-10-17T22:54:31.970Z,98614.06
2022-10-17T22:57:14.483Z,98618.72
2022-10-17T23:00:02.954Z,98618.22
2022-10-17T23:02:46.256Z,98622.44
2022-10-17T23:05:34.994Z,98613.53
2022-10-17T23:08:18.875Z,98612.59
2022-10-17T23:11:07.981Z,98620.38
2022-10-17T23:13:50.267Z,98608.44
2022-10-17T23:16:38.943Z,98612.59
2022-10-17T23:19:24.353Z,98617.78
2022-10-17T23:22:13.960Z,98620.59
2022-10-17T23:24:56.263Z,98619.47
2022-10-17T23:27:44.967Z,98629.09
2022-10-17T23:30:27.242Z,98628.00
2022-10-17T23:33:17.962Z,98618.84
2022-10-17T23:36:00.234Z,98629.78
2022-10-17T23:38:51.730Z,98625.53
2022-10-17T23:41:36.286Z,98623.59
2022-10-17T23:44:24.989Z,98636.41
2022-10-17T23:47:07.225Z,98630.94
2022-10-17T23:49:56.296Z,98629.88
2022-10-17T23:52:39.234Z,98632.41
2022-10-17T23:55:27.963Z,98637.34
2022-10-17T23:58:13.481Z,98638.44
